Terminal Aerodrome Forecast
Issued by NWS Lake Charles, LA

Home | Current Version | Previous Version | Text Only | Print | Product List | Glossary On
Versions: 1 2 3 4 5 6 7 8 9 10 11 12
003
FTUS44 KLCH 252325
TAFLFT
TAF
KLFT 252325Z 2600/2624 17010KT P6SM BKN035
      TEMPO 2602/2606 BKN025
     FM260600 18012KT P6SM OVC015
      TEMPO 2609/2613 OVC007
     FM261500 18014G22KT P6SM OVC025
     FM261800 19018G28KT P6SM SCT025 BKN035=

USA.gov is the U.S. government's official web portal to all federal, state and local government web resources and services.